createdAt,value
2023-04-24T00:00:37.533Z,1.20
2023-04-24T00:05:40.245Z,1.00
2023-04-24T00:08:15.302Z,1.10
2023-04-24T00:10:51.499Z,1.20
2023-04-24T00:13:25.254Z,1.10
2023-04-24T00:15:54.208Z,1.05
2023-04-24T00:18:26.448Z,1.13
2023-04-24T00:20:55.760Z,1.35
2023-04-24T00:23:27.427Z,1.40
2023-04-24T00:25:56.345Z,1.08
2023-04-24T00:28:32.616Z,1.08
2023-04-24T00:31:03.147Z,0.95
2023-04-24T00:33:37.295Z,1.00
2023-04-24T00:36:07.099Z,1.00
2023-04-24T00:38:37.679Z,1.10
2023-04-24T00:41:07.324Z,1.00
2023-04-24T00:43:40.435Z,1.20
2023-04-24T00:46:12.366Z,1.00
2023-04-24T00:48:42.382Z,1.13
2023-04-24T00:51:11.365Z,1.20
2023-04-24T00:53:43.339Z,0.93
2023-04-24T00:56:13.152Z,1.15
2023-04-24T00:58:45.335Z,1.05
2023-04-24T01:01:14.929Z,1.63
2023-04-24T01:03:44.183Z,1.10
2023-04-24T01:06:17.824Z,1.00
2023-04-24T01:08:48.060Z,1.35
2023-04-24T01:11:17.913Z,1.52
2023-04-24T01:13:51.752Z,1.20
2023-04-24T01:16:26.733Z,1.25
2023-04-24T01:18:56.395Z,1.40
2023-04-24T01:21:29.536Z,1.17
2023-04-24T01:24:01.468Z,1.10
2023-04-24T01:26:34.951Z,1.33
2023-04-24T01:29:07.595Z,2.75
2023-04-24T01:34:13.142Z,1.25
2023-04-24T01:36:48.777Z,1.42
2023-04-24T01:39:24.532Z,1.40
2023-04-24T01:41:57.847Z,1.50
2023-04-24T01:44:31.427Z,1.40
2023-04-24T01:47:00.704Z,1.40
2023-04-24T01:49:30.026Z,1.45
2023-04-24T01:52:01.249Z,1.02
2023-04-24T01:54:32.679Z,1.30
2023-04-24T01:57:09.030Z,1.58
2023-04-24T01:59:38.972Z,1.30
2023-04-24T02:02:08.622Z,1.40
2023-04-24T02:04:43.704Z,1.15
2023-04-24T02:07:12.812Z,0.95
2023-04-24T02:09:44.295Z,1.13
2023-04-24T02:12:14.550Z,1.23
2023-04-24T02:14:43.940Z,1.30
2023-04-24T02:17:17.005Z,1.02
2023-04-24T02:19:52.178Z,1.38
2023-04-24T02:22:25.287Z,1.40
2023-04-24T02:25:03.151Z,1.50
2023-04-24T02:27:32.316Z,1.35
2023-04-24T02:30:02.818Z,1.52
2023-04-24T02:32:32.270Z,1.52
2023-04-24T02:35:00.490Z,1.80
2023-04-24T02:37:28.467Z,2.30
2023-04-24T02:39:57.743Z,1.58
2023-04-24T02:42:25.754Z,1.40
2023-04-24T02:44:53.628Z,1.65
2023-04-24T02:47:21.811Z,1.98
2023-04-24T02:49:49.696Z,1.27
2023-04-24T02:52:17.755Z,1.20
2023-04-24T02:54:45.869Z,1.48
2023-04-24T02:57:15.607Z,1.30
2023-04-24T02:59:44.160Z,1.48
2023-04-24T03:02:12.300Z,1.35
2023-04-24T03:04:41.133Z,1.67
2023-04-24T03:07:09.279Z,1.40
2023-04-24T03:09:37.189Z,1.90
2023-04-24T03:12:05.309Z,2.00
2023-04-24T03:14:34.890Z,1.90
2023-04-24T03:17:02.789Z,2.00
2023-04-24T03:19:30.785Z,2.10
2023-04-24T03:21:58.742Z,2.00
2023-04-24T03:24:28.872Z,2.00
2023-04-24T03:26:57.773Z,1.73
2023-04-24T03:29:37.091Z,2.10
2023-04-24T03:32:17.141Z,1.80
2023-04-24T03:35:14.264Z,1.60
2023-04-24T03:37:53.616Z,1.98
2023-04-24T03:40:26.601Z,2.47
2023-04-24T03:42:57.548Z,1.73
2023-04-24T03:45:31.601Z,1.60
2023-04-24T03:48:01.925Z,2.03
2023-04-24T03:50:35.797Z,1.83
2023-04-24T03:53:06.895Z,1.83
2023-04-24T03:55:40.735Z,1.63
2023-04-24T03:58:15.287Z,1.80
2023-04-24T04:00:52.422Z,1.70
2023-04-24T04:03:25.745Z,1.95
2023-04-24T04:06:04.426Z,1.95
2023-04-24T04:08:40.916Z,2.00
2023-04-24T04:11:17.454Z,1.67
2023-04-24T04:13:54.259Z,1.67
2023-04-24T04:16:39.832Z,2.30
2023-04-24T04:19:13.186Z,2.33
2023-04-24T04:21:57.120Z,2.13
2023-04-24T04:24:42.548Z,2.60
2023-04-24T04:27:50.622Z,2.40
2023-04-24T04:30:25.387Z,2.83
2023-04-24T04:32:58.180Z,2.67
2023-04-24T04:35:28.979Z,2.78
2023-04-24T04:38:00.206Z,2.53
2023-04-24T04:41:12.859Z,2.80
2023-04-24T04:43:54.454Z,3.30
2023-04-24T04:46:41.298Z,3.15
2023-04-24T04:49:27.137Z,3.05
2023-04-24T04:52:36.655Z,3.28
2023-04-24T04:55:16.694Z,3.80
2023-04-24T04:58:09.620Z,3.42
2023-04-24T05:00:48.604Z,3.80
2023-04-24T05:03:21.417Z,3.50
2023-04-24T05:05:49.761Z,3.92
2023-04-24T05:08:26.293Z,2.78
2023-04-24T05:10:55.036Z,3.15
2023-04-24T05:13:35.536Z,2.75
2023-04-24T05:16:07.754Z,2.63
2023-04-24T05:18:35.869Z,2.92
2023-04-24T05:21:03.832Z,2.83
2023-04-24T05:23:33.113Z,3.55
2023-04-24T05:26:01.067Z,2.78
2023-04-24T05:28:29.423Z,3.85
2023-04-24T05:30:58.060Z,3.20
2023-04-24T05:33:26.127Z,3.47
2023-04-24T05:35:54.814Z,4.13
2023-04-24T05:38:23.163Z,3.55
2023-04-24T05:40:52.616Z,4.15
2023-04-24T05:43:20.786Z,4.13
2023-04-24T05:45:48.970Z,3.50
2023-04-24T05:48:17.026Z,3.20
2023-04-24T05:50:45.101Z,3.80
2023-04-24T05:53:13.033Z,3.13
2023-04-24T05:55:41.076Z,4.32
2023-04-24T05:58:10.466Z,3.40
2023-04-24T06:00:38.676Z,3.38
2023-04-24T06:03:06.838Z,3.30
2023-04-24T06:05:34.926Z,4.00
2023-04-24T06:08:02.869Z,3.20
2023-04-24T06:10:30.825Z,3.38
2023-04-24T06:13:01.326Z,3.30
2023-04-24T06:15:32.579Z,3.33
2023-04-24T06:18:00.852Z,3.15
2023-04-24T06:20:28.967Z,3.10
2023-04-24T06:22:57.180Z,3.00
2023-04-24T06:25:27.509Z,2.83
2023-04-24T06:27:55.927Z,3.60
2023-04-24T06:30:24.532Z,3.28
2023-04-24T06:32:55.729Z,3.38
2023-04-24T06:35:23.944Z,3.15
2023-04-24T06:37:52.151Z,2.92
2023-04-24T06:40:20.665Z,3.10
2023-04-24T06:42:48.728Z,2.72
2023-04-24T06:45:16.784Z,3.17
2023-04-24T06:47:44.834Z,2.80
2023-04-24T06:50:14.561Z,2.25
2023-04-24T06:52:43.079Z,1.80
2023-04-24T06:55:12.208Z,1.90
2023-04-24T06:57:40.340Z,1.20
2023-04-24T07:00:10.440Z,1.35
2023-04-24T07:02:38.701Z,1.25
2023-04-24T07:05:07.938Z,1.30
2023-04-24T07:07:38.690Z,0.93
2023-04-24T07:10:07.985Z,1.55
2023-04-24T07:12:36.683Z,1.10
2023-04-24T07:15:05.281Z,1.10
2023-04-24T07:17:33.381Z,1.38
2023-04-24T07:20:01.356Z,1.50
2023-04-24T07:22:29.292Z,1.30
2023-04-24T07:24:58.688Z,1.20
2023-04-24T07:27:27.078Z,1.27
2023-04-24T07:29:54.921Z,1.45
2023-04-24T07:32:22.932Z,1.33
2023-04-24T07:34:50.847Z,1.45
2023-04-24T07:37:19.285Z,1.38
2023-04-24T07:39:47.866Z,1.40
2023-04-24T07:42:17.391Z,1.80
2023-04-24T07:44:46.889Z,1.48
2023-04-24T07:47:15.807Z,1.52
2023-04-24T07:49:43.988Z,1.70
2023-04-24T07:52:12.230Z,1.55
2023-04-24T07:54:40.221Z,1.33
2023-04-24T07:57:09.273Z,1.38
2023-04-24T07:59:38.927Z,1.52
2023-04-24T08:02:07.952Z,1.73
2023-04-24T08:04:37.268Z,1.70
2023-04-24T08:07:05.607Z,1.40
2023-04-24T08:09:33.718Z,1.40
2023-04-24T08:12:02.260Z,1.40
2023-04-24T08:14:30.346Z,1.65
2023-04-24T08:17:01.390Z,1.20
2023-04-24T08:19:29.590Z,1.38
2023-04-24T08:21:57.679Z,1.33
2023-04-24T08:24:25.702Z,1.27
2023-04-24T08:26:55.031Z,1.55
2023-04-24T08:29:23.291Z,1.40
2023-04-24T08:31:51.587Z,1.88
2023-04-24T08:34:21.049Z,2.28
2023-04-24T08:36:49.182Z,2.38
2023-04-24T08:39:17.624Z,1.70
2023-04-24T08:41:46.517Z,1.52
2023-04-24T08:44:16.589Z,1.80
2023-04-24T08:46:46.712Z,1.63
2023-04-24T08:49:17.328Z,1.80
2023-04-24T08:51:48.088Z,2.10
2023-04-24T08:54:16.231Z,1.60
2023-04-24T08:56:46.882Z,1.58
2023-04-24T08:59:15.994Z,1.75
2023-04-24T09:01:45.009Z,2.05
2023-04-24T09:04:17.421Z,1.42
2023-04-24T09:09:15.191Z,1.70
2023-04-24T09:11:43.272Z,1.58
2023-04-24T09:14:12.163Z,1.77
2023-04-24T09:16:40.296Z,1.58
2023-04-24T09:19:08.533Z,1.70
2023-04-24T09:21:37.805Z,1.55
2023-04-24T09:24:08.517Z,2.38
2023-04-24T09:26:38.068Z,1.77
2023-04-24T09:29:06.900Z,1.70
2023-04-24T09:31:35.196Z,1.35
2023-04-24T09:34:08.303Z,1.67
2023-04-24T09:36:39.152Z,1.50
2023-04-24T09:39:11.842Z,1.45
2023-04-24T09:41:46.823Z,1.42
2023-04-24T09:44:16.309Z,1.80
2023-04-24T09:57:09.483Z,1.88
2023-04-24T09:59:44.014Z,1.77
2023-04-24T10:02:19.887Z,7.13
2023-04-24T10:04:57.547Z,3.00
2023-04-24T10:07:28.041Z,1.83
2023-04-24T10:09:56.622Z,1.50
2023-04-24T10:12:27.062Z,1.50
2023-04-24T10:14:56.004Z,1.70
2023-04-24T10:17:24.767Z,1.20
2023-04-24T10:19:53.979Z,1.50
2023-04-24T10:22:23.727Z,1.13
2023-04-24T10:24:53.330Z,1.10
2023-04-24T10:27:23.701Z,1.33
2023-04-24T10:29:56.242Z,1.48
2023-04-24T10:34:52.094Z,1.70
2023-04-24T10:37:20.977Z,1.60
2023-04-24T10:39:52.028Z,1.55
2023-04-24T10:42:20.884Z,1.55
2023-04-24T10:44:50.813Z,1.63
2023-04-24T10:47:20.862Z,1.52
2023-04-24T10:49:52.674Z,1.92
2023-04-24T10:52:21.644Z,1.90
2023-04-24T10:54:50.387Z,2.13
2023-04-24T10:57:32.317Z,1.95
2023-04-24T11:00:16.573Z,1.75
2023-04-24T11:02:51.724Z,1.58
2023-04-24T11:05:21.697Z,1.60
2023-04-24T11:08:17.032Z,1.80
2023-04-24T11:10:49.920Z,1.85
2023-04-24T11:13:18.901Z,1.98
2023-04-24T11:15:46.989Z,1.95
2023-04-24T11:18:17.821Z,1.80
2023-04-24T11:20:46.677Z,2.08
2023-04-24T11:23:15.332Z,2.20
2023-04-24T11:25:43.953Z,1.73
2023-04-24T11:28:18.332Z,2.10
2023-04-24T11:30:46.490Z,2.35
2023-04-24T11:33:23.889Z,2.65
2023-04-24T11:35:54.142Z,2.33
2023-04-24T11:38:24.912Z,2.03
2023-04-24T11:40:54.614Z,2.17
2023-04-24T11:43:23.612Z,2.50
2023-04-24T11:45:52.008Z,2.50
2023-04-24T11:48:23.710Z,2.40
2023-04-24T11:50:52.960Z,2.92
2023-04-24T11:53:22.615Z,2.97
2023-04-24T11:55:50.823Z,2.60
2023-04-24T11:58:23.814Z,2.05
2023-04-24T12:00:58.988Z,2.70
2023-04-24T12:03:29.162Z,2.40
2023-04-24T12:06:07.897Z,2.50
2023-04-24T12:08:38.327Z,2.47
2023-04-24T12:11:09.099Z,2.40
2023-04-24T12:13:37.821Z,1.92
2023-04-24T12:16:06.696Z,2.25
2023-04-24T12:18:36.326Z,2.15
2023-04-24T12:21:27.449Z,2.35
2023-04-24T12:24:01.559Z,2.20
2023-04-24T12:26:35.100Z,2.63
2023-04-24T12:29:09.106Z,2.15
2023-04-24T12:31:37.378Z,2.20
2023-04-24T12:34:18.817Z,2.83
2023-04-24T12:36:47.262Z,2.10
2023-04-24T12:39:18.741Z,3.90
2023-04-24T12:41:58.185Z,2.50
2023-04-24T12:44:35.429Z,2.42
2023-04-24T12:47:03.905Z,2.53
2023-04-24T12:49:33.929Z,2.22
2023-04-24T12:52:02.138Z,2.38
2023-04-24T12:54:35.014Z,2.08
2023-04-24T12:57:07.760Z,2.58
2023-04-24T12:59:40.202Z,2.60
2023-04-24T13:02:10.268Z,2.17
2023-04-24T13:04:40.121Z,2.30
2023-04-24T13:07:16.426Z,2.55
2023-04-24T13:09:45.178Z,2.58
2023-04-24T13:12:25.156Z,2.40
2023-04-24T13:14:57.320Z,2.80
2023-04-24T13:17:37.339Z,1.95
2023-04-24T13:20:11.832Z,1.83
2023-04-24T13:22:45.403Z,2.65
2023-04-24T13:25:24.563Z,2.42
2023-04-24T13:28:10.090Z,2.08
2023-04-24T13:30:51.684Z,2.47
2023-04-24T13:33:57.563Z,1.73
2023-04-24T13:36:53.929Z,2.17
2023-04-24T13:39:29.055Z,2.33
2023-04-24T13:42:55.285Z,2.00
2023-04-24T13:46:13.339Z,2.00
2023-04-24T13:48:49.490Z,2.13
2023-04-24T13:51:29.348Z,2.55
2023-04-24T13:54:26.439Z,1.85
2023-04-24T14:00:35.918Z,2.42
2023-04-24T14:03:11.131Z,2.50
2023-04-24T14:08:46.246Z,2.17
2023-04-24T14:11:39.201Z,2.55
2023-04-24T14:14:28.058Z,2.20
2023-04-24T14:17:17.795Z,2.90
2023-04-24T14:19:48.707Z,2.25
2023-04-24T14:22:34.709Z,2.17
2023-04-24T14:25:16.212Z,2.45
2023-04-24T14:28:37.286Z,1.90
2023-04-24T14:31:09.466Z,3.60
2023-04-24T14:34:10.508Z,1.70
2023-04-24T14:36:47.568Z,2.00
2023-04-24T14:39:37.725Z,2.00
2023-04-24T14:42:09.478Z,1.90
2023-04-24T14:44:46.650Z,2.25
2023-04-24T14:47:28.314Z,2.20
2023-04-24T14:50:31.336Z,1.95
2023-04-24T14:53:14.562Z,2.10
2023-04-24T14:55:43.507Z,2.08
2023-04-24T14:58:15.452Z,2.40
2023-04-24T15:01:22.964Z,2.83
2023-04-24T15:04:26.330Z,2.55
2023-04-24T15:23:17.361Z,2.80
2023-04-24T15:26:35.665Z,2.90
2023-04-24T15:29:16.749Z,3.10
2023-04-24T15:32:19.487Z,3.05
2023-04-24T15:35:43.156Z,2.42
2023-04-24T15:38:15.005Z,2.40
2023-04-24T15:44:11.756Z,2.70
2023-04-24T15:46:46.858Z,2.78
2023-04-24T15:49:52.302Z,2.25
2023-04-24T15:52:35.568Z,2.63
2023-04-24T15:55:37.368Z,2.67
2023-04-24T15:58:13.449Z,2.33
2023-04-24T16:00:54.331Z,2.70
2023-04-24T16:03:47.461Z,2.08
2023-04-24T16:06:35.946Z,2.58
2023-04-24T16:09:22.203Z,2.03
2023-04-24T16:12:16.893Z,1.90
2023-04-24T16:15:08.156Z,1.95
2023-04-24T16:17:52.067Z,2.20
2023-04-24T16:20:43.075Z,2.17
2023-04-24T16:23:26.551Z,1.80
2023-04-24T16:25:54.732Z,1.70
2023-04-24T16:28:24.116Z,4.78
2023-04-24T16:30:52.117Z,1.63
2023-04-24T16:33:20.268Z,2.33
2023-04-24T16:35:48.317Z,1.70
2023-04-24T16:38:16.331Z,1.90
2023-04-24T16:40:44.388Z,1.50
2023-04-24T16:43:12.418Z,1.67
2023-04-24T16:45:41.886Z,1.73
2023-04-24T16:48:11.236Z,1.63
2023-04-24T16:50:39.457Z,1.85
2023-04-24T16:53:07.412Z,1.38
2023-04-24T16:55:35.297Z,1.40
2023-04-24T16:58:03.239Z,1.70
2023-04-24T17:00:31.202Z,1.73
2023-04-24T17:03:01.049Z,1.52
2023-04-24T17:05:29.201Z,1.83
2023-04-24T17:07:57.509Z,1.63
2023-04-24T17:10:25.725Z,1.40
2023-04-24T17:12:53.702Z,1.40
2023-04-24T17:15:21.591Z,1.38
2023-04-24T17:17:50.904Z,1.80
2023-04-24T17:20:22.710Z,1.33
2023-04-24T17:22:52.109Z,1.50
2023-04-24T17:25:20.120Z,1.52
2023-04-24T17:27:50.161Z,1.45
2023-04-24T17:30:18.768Z,1.52
2023-04-24T17:32:47.064Z,1.90
2023-04-24T17:35:15.558Z,1.52
2023-04-24T17:40:55.046Z,1.58
2023-04-24T17:43:31.293Z,1.90
2023-04-24T17:46:02.384Z,1.45
2023-04-24T17:48:34.193Z,1.58
2023-04-24T17:51:05.420Z,1.48
2023-04-24T17:53:38.262Z,1.75
2023-04-24T17:56:09.713Z,1.48
2023-04-24T17:58:38.357Z,2.05
2023-04-24T18:01:09.181Z,2.08
2023-04-24T18:03:38.565Z,2.08
2023-04-24T18:06:10.738Z,2.45
2023-04-24T18:08:49.638Z,3.08
2023-04-24T18:11:23.308Z,2.05
2023-04-24T18:13:51.791Z,1.77
2023-04-24T18:16:20.436Z,2.03
2023-04-24T18:18:49.384Z,2.10
2023-04-24T18:21:32.211Z,1.40
2023-04-24T18:24:05.834Z,1.83
2023-04-24T18:26:33.967Z,1.83
2023-04-24T18:29:06.912Z,1.90
2023-04-24T18:31:39.833Z,2.00
2023-04-24T18:34:15.871Z,2.28
2023-04-24T18:36:44.228Z,1.90
2023-04-24T18:39:17.336Z,1.77
2023-04-24T18:41:47.780Z,1.65
2023-04-24T18:44:16.056Z,1.80
2023-04-24T18:46:45.690Z,1.70
2023-04-24T18:49:14.163Z,1.85
2023-04-24T18:51:53.185Z,2.10
2023-04-24T18:54:27.161Z,1.63
2023-04-24T18:56:55.329Z,2.28
2023-04-24T18:59:27.986Z,2.13
2023-04-24T19:01:58.449Z,2.50
2023-04-24T19:04:29.209Z,1.98
2023-04-24T19:06:57.441Z,2.15
2023-04-24T19:09:26.978Z,2.33
2023-04-24T19:11:57.150Z,2.05
2023-04-24T19:14:27.874Z,2.28
2023-04-24T19:16:56.091Z,1.95
2023-04-24T19:19:26.058Z,1.88
2023-04-24T19:21:54.208Z,2.10
2023-04-24T19:24:22.690Z,1.70
2023-04-24T19:27:01.898Z,1.92
2023-04-24T19:29:36.428Z,2.15
2023-04-24T19:32:07.174Z,1.80
2023-04-24T19:34:36.371Z,1.95
2023-04-24T19:37:06.435Z,1.90
2023-04-24T19:39:41.107Z,1.98
2023-04-24T19:44:41.107Z,2.33
2023-04-24T19:47:13.820Z,1.90
2023-04-24T19:49:42.037Z,2.28
2023-04-24T19:52:10.566Z,1.90
2023-04-24T19:54:38.843Z,1.67
2023-04-24T19:57:08.901Z,1.65
2023-04-24T19:59:38.680Z,1.77
2023-04-24T20:02:11.651Z,2.08
2023-04-24T20:04:40.333Z,2.22
2023-04-24T20:07:08.726Z,1.95
2023-04-24T20:09:37.091Z,2.40
2023-04-24T20:12:15.120Z,2.05
2023-04-24T20:14:48.514Z,2.00
2023-04-24T20:17:19.930Z,2.13
2023-04-24T20:19:48.474Z,2.00
2023-04-24T20:22:16.719Z,2.33
2023-04-24T20:24:45.939Z,2.00
2023-04-24T20:27:14.574Z,2.28
2023-04-24T20:29:42.719Z,2.03
2023-04-24T20:32:12.365Z,2.33
2023-04-24T20:34:40.538Z,1.75
2023-04-24T20:37:09.300Z,3.05
2023-04-24T20:39:38.855Z,1.98
2023-04-24T20:42:13.393Z,2.35
2023-04-24T20:44:41.679Z,2.25
2023-04-24T20:47:11.359Z,2.50
2023-04-24T20:49:39.476Z,2.13
2023-04-24T20:52:07.971Z,2.70
2023-04-24T20:54:38.931Z,2.22
2023-04-24T20:57:07.394Z,2.30
2023-04-24T20:59:35.801Z,2.58
2023-04-24T21:02:05.126Z,2.45
2023-04-24T21:04:37.679Z,2.38
2023-04-24T21:07:06.208Z,2.58
2023-04-24T21:09:35.805Z,2.15
2023-04-24T21:12:04.114Z,2.10
2023-04-24T21:14:32.292Z,2.08
2023-04-24T21:17:02.008Z,2.35
2023-04-24T21:19:32.614Z,3.08
2023-04-24T21:22:02.289Z,2.78
2023-04-24T21:24:30.668Z,2.33
2023-04-24T21:26:59.398Z,2.33
2023-04-24T21:29:27.487Z,2.72
2023-04-24T21:31:55.884Z,2.45
2023-04-24T21:34:24.101Z,2.45
2023-04-24T21:36:52.421Z,2.38
2023-04-24T21:39:22.014Z,2.40
2023-04-24T21:41:50.217Z,2.67
2023-04-24T21:44:18.319Z,2.30
2023-04-24T21:46:46.753Z,2.00
2023-04-24T21:49:14.850Z,1.60
2023-04-24T21:51:47.548Z,1.50
2023-04-24T21:54:15.654Z,1.60
2023-04-24T21:56:45.326Z,1.50
2023-04-24T21:59:18.371Z,1.40
2023-04-24T22:01:46.622Z,1.52
2023-04-24T22:04:14.872Z,1.80
2023-04-24T22:06:43.591Z,1.83
2023-04-24T22:09:11.639Z,1.65
2023-04-24T22:11:39.735Z,1.70
2023-04-24T22:14:09.466Z,1.80
2023-04-24T22:16:37.973Z,1.80
2023-04-24T22:19:06.213Z,1.58
2023-04-24T22:21:34.522Z,1.50
2023-04-24T22:24:02.739Z,1.73
2023-04-24T22:26:30.882Z,1.95
2023-04-24T22:29:01.905Z,1.58
2023-04-24T22:31:48.060Z,1.80
2023-04-24T22:34:21.975Z,2.72
2023-04-24T22:36:50.302Z,1.65
2023-04-24T22:39:18.894Z,1.67
2023-04-24T22:41:46.831Z,1.50
2023-04-24T22:44:14.785Z,1.77
2023-04-24T22:46:45.239Z,1.63
2023-04-24T22:49:13.339Z,1.80
2023-04-24T22:51:41.762Z,1.77
2023-04-24T22:54:09.764Z,1.92
2023-04-24T22:56:37.958Z,1.67
2023-04-24T22:59:06.529Z,1.80
2023-04-24T23:01:34.433Z,1.95
2023-04-24T23:04:03.914Z,2.38
2023-04-24T23:06:32.117Z,1.67
2023-04-24T23:09:00.013Z,1.77
2023-04-24T23:11:28.148Z,1.92
2023-04-24T23:13:56.325Z,2.05
2023-04-24T23:16:24.334Z,2.03
2023-04-24T23:18:52.482Z,2.10
2023-04-24T23:21:22.871Z,1.90
2023-04-24T23:23:52.795Z,2.20
2023-04-24T23:26:20.892Z,2.28
2023-04-24T23:28:48.916Z,2.17
2023-04-24T23:31:17.029Z,2.22
2023-04-24T23:33:45.010Z,2.20
2023-04-24T23:36:13.083Z,2.53
2023-04-24T23:38:49.998Z,2.85
2023-04-24T23:41:18.941Z,2.42
2023-04-24T23:43:47.078Z,2.72
2023-04-24T23:46:15.408Z,2.45
2023-04-24T23:48:43.408Z,2.60
2023-04-24T23:51:11.580Z,2.92
2023-04-24T23:53:39.537Z,2.83
2023-04-24T23:56:09.024Z,2.90
2023-04-24T23:58:37.008Z,3.10
